Time;durP1;ratioP1;P1;durP2;ratioP2;P2;SDS_P1;SDS_P2;PMS_P1;PMS_P2;Temp;Humidity;BMP_temperature;BMP_pressure;BME280_temperature;BME280_humidity;BME280_pressure;Samples;Min_cycle;Max_cycle;Signal;HPM_P1;HPM_P2
2021/08/29 00:00:46;;;;;;;8.88;7.97;;;;;;;16.08;100.00;100061.88;5105319;28;20531;-63
2021/08/29 00:03:12;;;;;;;8.45;7.45;;;;;;;16.07;100.00;100054.78;5105863;28;20035;-62
2021/08/29 00:05:37;;;;;;;10.80;8.20;;;;;;;16.07;100.00;100048.50;5087048;28;20112;-62
2021/08/29 00:08:03;;;;;;;8.80;7.90;;;;;;;16.04;100.00;100048.88;5105564;28;20429;-62
2021/08/29 00:10:28;;;;;;;8.75;7.75;;;;;;;16.03;100.00;100045.34;5105676;28;20023;-62
2021/08/29 00:12:54;;;;;;;8.73;7.93;;;;;;;16.03;100.00;100049.91;5105155;28;20096;-62
2021/08/29 00:15:19;;;;;;;7.47;6.70;;;;;;;16.04;100.00;100040.75;5105559;28;20531;-62
2021/08/29 00:17:45;;;;;;;9.10;7.72;;;;;;;16.02;100.00;100040.94;5104741;28;20119;-62
2021/08/29 00:20:11;;;;;;;10.57;8.38;;;;;;;16.00;100.00;100040.28;5105774;28;20387;-62
2021/08/29 00:22:37;;;;;;;9.07;8.18;;;;;;;15.90;100.00;100020.72;5105624;28;20035;-62
2021/08/29 00:25:03;;;;;;;9.07;8.18;;;;;;;16.00;100.00;100034.88;5104814;28;20118;-62
2021/08/29 00:27:28;;;;;;;9.20;8.25;;;;;;;15.98;100.00;100030.63;5105437;28;20073;-62
2021/08/29 00:29:54;;;;;;;10.10;8.02;;;;;;;15.96;100.00;100032.69;5104868;28;20033;-62
2021/08/29 00:32:19;;;;;;;8.85;7.55;;;;;;;15.94;100.00;100033.69;5105197;28;20515;-62
2021/08/29 00:34:44;;;;;;;11.65;8.00;;;;;;;15.92;100.00;100032.19;5104315;28;20051;-62
2021/08/29 00:37:10;;;;;;;9.35;8.05;;;;;;;15.90;100.00;100028.84;5105827;28;20051;-62
2021/08/29 00:39:35;;;;;;;9.70;7.05;;;;;;;15.88;100.00;100034.41;5105198;28;20451;-62
2021/08/29 00:42:07;;;;;;;8.85;7.53;;;;;;;15.89;100.00;100029.81;5104622;28;20035;-60
2021/08/29 00:44:34;;;;;;;8.65;6.80;;;;;;;15.83;100.00;100015.16;5104926;28;20659;-61
2021/08/29 00:46:59;;;;;;;8.85;7.28;;;;;;;15.83;100.00;100011.59;5104797;28;20032;-61
2021/08/29 00:49:25;;;;;;;9.48;7.32;;;;;;;15.87;100.00;100018.34;5086364;28;20514;-61
2021/08/29 00:51:53;;;;;;;8.70;7.78;;;;;;;15.83;100.00;100001.63;5104946;28;20096;-62
2021/08/29 00:54:19;;;;;;;9.23;7.50;;;;;;;15.87;100.00;100007.53;5104905;28;20398;-61
2021/08/29 00:56:44;;;;;;;8.35;7.05;;;;;;;15.87;100.00;100013.78;5104679;28;20024;-61
2021/08/29 00:59:10;;;;;;;7.90;7.10;;;;;;;15.86;100.00;100014.81;5105333;28;20019;-62
2021/08/29 01:01:40;;;;;;;8.52;7.60;;;;;;;15.84;100.00;100021.41;5086422;28;20080;-62
2021/08/29 01:04:13;;;;;;;8.85;6.90;;;;;;;15.83;100.00;100017.84;5103323;28;20035;-62
2021/08/29 01:06:59;;;;;;;7.85;7.05;;;;;;;15.83;100.00;100034.06;5105784;28;20406;-62
2021/08/29 01:09:24;;;;;;;8.70;7.47;;;;;;;15.82;100.00;100042.38;5106616;28;20023;-62
2021/08/29 01:11:52;;;;;;;8.00;7.18;;;;;;;15.82;100.00;100045.94;5106300;28;20042;-62
2021/08/29 01:14:31;;;;;;;7.85;7.05;;;;;;;15.82;100.00;100040.53;5106310;28;20483;-62
2021/08/29 01:16:59;;;;;;;10.45;8.02;;;;;;;15.83;100.00;100039.50;5106201;28;20024;-61
2021/08/29 01:19:54;;;;;;;8.25;7.45;;;;;;;15.81;100.00;100044.22;5109519;28;20057;-62
2021/08/29 01:22:20;;;;;;;9.50;7.10;;;;;;;15.80;100.00;100023.59;5093148;28;20058;-62
2021/08/29 01:24:48;;;;;;;11.63;7.72;;;;;;;15.81;100.00;100028.00;5109637;28;20024;-62
2021/08/29 01:27:39;;;;;;;8.43;7.10;;;;;;;15.84;100.00;100027.63;5110378;28;20039;-62
2021/08/29 01:30:06;;;;;;;8.88;7.63;;;;;;;15.83;100.00;100017.00;5087742;28;20039;-63
2021/08/29 01:32:32;;;;;;;7.65;6.95;;;;;;;15.85;100.00;100018.53;5110118;28;20023;-63
2021/08/29 01:34:59;;;;;;;10.00;7.90;;;;;;;15.83;100.00;100014.28;5109568;28;20128;-63
2021/08/29 01:37:25;;;;;;;10.20;7.22;;;;;;;15.84;100.00;100024.94;5110105;28;20027;-63
2021/08/29 01:39:50;;;;;;;7.15;6.45;;;;;;;15.79;100.00;100026.50;5108583;28;20072;-63
2021/08/29 01:42:19;;;;;;;10.70;7.05;;;;;;;15.74;100.00;100029.72;5109102;28;20103;-62
2021/08/29 01:44:45;;;;;;;7.82;6.90;;;;;;;15.71;100.00;100023.84;5108452;28;20072;-63
2021/08/29 01:47:11;;;;;;;8.55;7.03;;;;;;;15.67;100.00;100020.63;5090512;28;20126;-62
2021/08/29 01:49:36;;;;;;;9.38;7.05;;;;;;;15.62;100.00;100020.31;5108421;28;20061;-62
2021/08/29 01:52:02;;;;;;;10.77;7.50;;;;;;;15.56;100.00;100004.78;5109149;28;20505;-62
2021/08/29 01:54:28;;;;;;;9.68;8.55;;;;;;;15.59;100.00;100011.69;5109636;28;20019;-62
2021/08/29 01:57:13;;;;;;;9.13;7.30;;;;;;;15.57;100.00;100005.59;5109519;28;20032;-63
2021/08/29 01:59:40;;;;;;;8.45;7.65;;;;;;;15.61;100.00;100005.09;5109780;28;20023;-62
2021/08/29 02:02:06;;;;;;;11.35;7.80;;;;;;;15.58;100.00;99997.31;5110128;28;20080;-62
2021/08/29 02:04:32;;;;;;;9.43;7.70;;;;;;;15.59;100.00;100004.44;5109358;28;20031;-62
2021/08/29 02:07:16;;;;;;;8.32;7.43;;;;;;;15.58;100.00;99999.22;5109186;28;20195;-61
2021/08/29 02:09:59;;;;;;;7.38;6.68;;;;;;;15.40;100.00;99975.09;5109610;28;20028;-62
2021/08/29 02:12:28;;;;;;;8.15;7.35;;;;;;;15.48;100.00;99991.28;5109362;28;20044;-62
2021/08/29 02:15:07;;;;;;;8.40;7.60;;;;;;;15.48;100.00;99985.88;5090347;28;20063;-61
2021/08/29 02:17:33;;;;;;;9.68;8.68;;;;;;;15.54;100.00;99992.44;5109018;28;20475;-61
2021/08/29 02:20:03;;;;;;;10.07;8.95;;;;;;;15.49;100.00;99987.59;5107685;28;20030;-61
2021/08/29 02:22:29;;;;;;;10.65;9.55;;;;;;;15.51;100.00;99985.53;5108426;28;20028;-61
2021/08/29 02:24:54;;;;;;;10.93;9.82;;;;;;;15.50;100.00;99989.25;5108567;28;20027;-61
2021/08/29 02:27:20;;;;;;;11.68;10.43;;;;;;;15.48;100.00;99985.88;5109478;28;20023;-61
2021/08/29 02:29:46;;;;;;;12.35;9.65;;;;;;;15.51;100.00;99985.53;5108430;28;20035;-61
2021/08/29 02:32:13;;;;;;;10.27;9.27;;;;;;;15.49;100.00;99986.72;5109594;28;20032;-61
2021/08/29 02:34:39;;;;;;;12.80;9.27;;;;;;;15.43;100.00;99977.47;5109075;28;20042;-60
2021/08/29 02:37:08;;;;;;;11.88;10.35;;;;;;;15.46;100.00;99985.22;5109132;28;20027;-61
2021/08/29 02:39:36;;;;;;;9.75;8.63;;;;;;;15.46;100.00;99979.81;5090696;28;20487;-61
2021/08/29 02:42:03;;;;;;;10.88;9.73;;;;;;;15.37;100.00;99961.94;5108569;28;20028;-61
2021/08/29 02:44:29;;;;;;;10.07;9.07;;;;;;;15.39;100.00;99968.03;5109307;28;20031;-61
2021/08/29 02:46:55;;;;;;;13.82;9.65;;;;;;;15.42;100.00;99974.94;5108910;28;20092;-61
2021/08/29 02:49:22;;;;;;;10.07;9.07;;;;;;;15.40;100.00;99975.09;5108739;28;20052;-61
2021/08/29 02:51:51;;;;;;;11.15;9.52;;;;;;;15.38;100.00;99974.41;5107738;28;20032;-61
2021/08/29 02:54:18;;;;;;;11.20;9.50;;;;;;;15.35;100.00;99973.91;5108361;28;20460;-60
2021/08/29 02:56:47;;;;;;;10.88;9.32;;;;;;;15.29;100.00;99967.31;5108467;28;20028;-61
2021/08/29 02:59:13;;;;;;;11.85;9.13;;;;;;;15.29;100.00;99971.91;5108983;28;20027;-61
2021/08/29 03:01:38;;;;;;;11.30;9.45;;;;;;;15.23;100.00;99970.75;5108455;28;20072;-61
2021/08/29 03:04:04;;;;;;;9.80;8.90;;;;;;;15.22;100.00;99971.72;5108252;28;20027;-60
2021/08/29 03:06:30;;;;;;;10.00;9.00;;;;;;;15.15;100.00;99956.38;5108369;28;20027;-60
2021/08/29 03:08:55;;;;;;;11.15;9.30;;;;;;;15.15;100.00;99954.53;5107707;28;20023;-61
2021/08/29 03:11:21;;;;;;;9.07;8.20;;;;;;;15.12;100.00;99954.88;5108339;28;20108;-62
2021/08/29 03:13:49;;;;;;;10.95;9.57;;;;;;;15.15;100.00;99954.53;5107966;28;20467;-61
2021/08/29 03:16:16;;;;;;;11.25;9.20;;;;;;;15.10;100.00;99956.91;5108584;28;20020;-61
2021/08/29 03:18:44;;;;;;;11.55;8.52;;;;;;;15.03;100.00;99942.38;5089629;28;20028;-61
2021/08/29 03:21:09;;;;;;;10.02;8.98;;;;;;;15.03;100.00;99946.97;5089867;28;20024;-61
2021/08/29 03:23:35;;;;;;;11.10;9.10;;;;;;;14.99;100.00;99942.94;5108140;28;20253;-61
2021/08/29 03:26:01;;;;;;;11.70;9.00;;;;;;;14.93;100.00;99941.75;5106957;28;20487;-62
2021/08/29 03:28:27;;;;;;;9.82;8.82;;;;;;;14.93;100.00;99940.91;5107279;28;20039;-61
2021/08/29 03:30:53;;;;;;;10.85;9.18;;;;;;;14.91;100.00;99942.94;5106722;28;20032;-61
2021/08/29 03:33:19;;;;;;;11.68;7.75;;;;;;;14.82;100.00;99939.41;5107240;28;20019;-61
2021/08/29 03:35:45;;;;;;;10.00;8.23;;;;;;;14.78;100.00;99942.63;5106750;28;20027;-61
2021/08/29 03:38:11;;;;;;;8.38;7.57;;;;;;;14.79;100.00;99944.28;5107830;28;20110;-62
2021/08/29 03:40:40;;;;;;;9.60;8.38;;;;;;;14.74;100.00;99952.06;5106812;28;20490;-61
2021/08/29 03:43:06;;;;;;;9.27;8.38;;;;;;;14.68;100.00;99942.81;5107722;28;20080;-60
2021/08/29 03:45:32;;;;;;;9.93;8.27;;;;;;;14.68;100.00;99953.59;5089320;28;20027;-60
2021/08/29 03:47:58;;;;;;;9.30;8.40;;;;;;;14.64;100.00;99952.22;5106455;28;20042;-61
2021/08/29 03:50:24;;;;;;;10.85;9.18;;;;;;;14.60;100.00;99947.34;5107266;28;20023;-60
2021/08/29 03:52:49;;;;;;;10.10;8.98;;;;;;;14.57;100.00;99951.22;5106533;28;20031;-61
2021/08/29 03:55:15;;;;;;;9.90;8.90;;;;;;;14.56;100.00;99954.09;5107805;28;20085;-61
2021/08/29 03:57:41;;;;;;;11.95;9.15;;;;;;;14.48;100.00;99946.00;5107018;28;20015;-61
2021/08/29 04:00:07;;;;;;;11.27;9.30;;;;;;;14.50;100.00;99941.28;5107701;28;20507;-60
2021/08/29 04:02:33;;;;;;;11.85;9.30;;;;;;;14.49;100.00;99948.53;5107485;28;20410;-61
2021/08/29 04:04:58;;;;;;;10.35;9.18;;;;;;;14.43;100.00;99941.13;5107344;28;20016;-60
2021/08/29 04:07:26;;;;;;;9.60;8.60;;;;;;;14.45;100.00;99946.34;5107748;28;20030;-61
2021/08/29 04:09:52;;;;;;;9.77;8.45;;;;;;;14.40;100.00;99940.59;5107198;28;20058;-61
2021/08/29 04:12:19;;;;;;;11.00;8.65;;;;;;;14.40;100.00;99938.75;5107385;28;20038;-61
2021/08/29 04:14:46;;;;;;;10.57;9.05;;;;;;;14.37;100.00;99944.47;5107334;28;20399;-62
2021/08/29 04:17:13;;;;;;;13.90;8.90;;;;;;;14.30;100.00;99946.16;5107446;28;20471;-61
2021/08/29 04:19:41;;;;;;;9.23;8.30;;;;;;;14.24;100.00;99943.28;5106950;28;20059;-63
2021/08/29 04:22:08;;;;;;;10.43;9.43;;;;;;;14.24;100.00;99940.59;5107463;28;20387;-63
2021/08/29 04:24:34;;;;;;;12.48;8.93;;;;;;;14.27;100.00;99951.03;5107371;28;20020;-63
2021/08/29 04:26:59;;;;;;;10.15;8.32;;;;;;;14.22;100.00;99946.09;5107072;28;20030;-63
2021/08/29 04:29:25;;;;;;;8.52;7.63;;;;;;;14.21;100.00;99952.53;5107488;28;20156;-62
2021/08/29 04:31:53;;;;;;;14.90;8.50;;;;;;;14.18;100.00;99952.84;5106855;28;20023;-63
2021/08/29 04:34:19;;;;;;;9.88;8.15;;;;;;;14.09;100.00;99943.06;5107025;28;20055;-62
2021/08/29 04:36:44;;;;;;;12.60;8.23;;;;;;;14.09;100.00;99944.94;5106985;28;20117;-62
2021/08/29 04:39:10;;;;;;;10.38;8.93;;;;;;;14.15;100.00;99942.41;5107315;28;20356;-63
2021/08/29 04:41:36;;;;;;;12.68;9.68;;;;;;;14.21;100.00;99957.06;5107381;28;20032;-63
2021/08/29 04:44:02;;;;;;;14.10;10.35;;;;;;;14.21;100.00;99965.16;5106884;28;20019;-62
2021/08/29 04:46:28;;;;;;;11.55;10.45;;;;;;;14.23;100.00;99961.34;5107515;28;20042;-63
2021/08/29 04:48:54;;;;;;;11.60;10.40;;;;;;;14.10;100.00;99942.06;5106230;28;20063;-63
2021/08/29 04:51:19;;;;;;;11.00;9.90;;;;;;;14.23;100.00;99953.25;5107049;28;20033;-63
2021/08/29 04:53:45;;;;;;;11.98;10.32;;;;;;;14.30;100.00;99958.81;5110643;28;20035;-61
2021/08/29 04:56:10;;;;;;;12.68;10.70;;;;;;;14.27;100.00;99949.19;5111146;28;20382;-62
2021/08/29 04:58:35;;;;;;;14.82;10.68;;;;;;;14.43;100.00;99960.00;5111052;28;20053;-63
2021/08/29 05:01:01;;;;;;;13.80;11.55;;;;;;;14.48;100.00;99948.72;5110656;28;20055;-62
2021/08/29 05:03:27;;;;;;;10.75;9.65;;;;;;;14.55;100.00;99947.03;5110670;28;20024;-63
2021/08/29 05:05:53;;;;;;;11.15;8.90;;;;;;;14.65;100.00;99937.75;5110734;28;20058;-61
2021/08/29 05:08:18;;;;;;;9.82;8.90;;;;;;;14.64;100.00;99943.31;5111220;28;20403;-62
2021/08/29 05:10:44;;;;;;;10.93;9.57;;;;;;;14.76;100.00;99947.34;5110551;28;20024;-63
2021/08/29 05:13:09;;;;;;;12.60;8.93;;;;;;;14.84;100.00;99952.75;5110888;28;20606;-61
2021/08/29 05:15:35;;;;;;;10.05;9.05;;;;;;;14.93;100.00;99949.03;5092188;28;20062;-62
2021/08/29 05:18:01;;;;;;;9.27;8.02;;;;;;;14.97;100.00;99935.00;5111156;28;20106;-62
2021/08/29 05:20:26;;;;;;;11.63;8.32;;;;;;;15.05;100.00;99939.53;5110851;28;20126;-63
2021/08/29 05:22:52;;;;;;;8.70;7.80;;;;;;;15.16;100.00;99933.78;5110697;28;20031;-62
2021/08/29 05:25:17;;;;;;;7.70;7.00;;;;;;;15.35;100.00;99944.19;5111124;28;20035;-61
2021/08/29 05:27:44;;;;;;;8.93;8.02;;;;;;;15.37;100.00;99916.00;5109953;28;20110;-62
2021/08/29 05:30:10;;;;;;;9.90;7.13;;;;;;;15.60;100.00;99935.81;5109911;28;20023;-62
2021/08/29 05:32:36;;;;;;;8.27;6.78;;;;;;;15.78;100.00;99944.53;5107506;28;20114;-61
2021/08/29 05:35:01;;;;;;;9.13;6.25;;;;;;;15.88;100.00;99930.78;5109904;28;20154;-61
2021/08/29 05:37:27;;;;;;;6.65;6.00;;;;;;;15.96;100.00;99933.44;5110744;28;20459;-62
2021/08/29 05:39:52;;;;;;;10.07;6.50;;;;;;;16.12;100.00;99927.09;5110165;28;20387;-62
2021/08/29 05:42:18;;;;;;;7.55;6.18;;;;;;;16.29;100.00;99936.78;5110629;28;20439;-62
2021/08/29 05:44:43;;;;;;;8.18;6.07;;;;;;;16.35;100.00;99920.63;5108632;28;20056;-62
2021/08/29 05:47:09;;;;;;;8.60;6.05;;;;;;;16.51;100.00;99933.25;5109216;28;20019;-62
2021/08/29 05:49:34;;;;;;;7.55;6.53;;;;;;;16.70;100.00;99930.03;5109662;28;20044;-61
2021/08/29 05:52:00;;;;;;;7.57;6.25;;;;;;;16.79;100.00;99927.06;5091218;28;20125;-61
2021/08/29 05:54:25;;;;;;;6.97;6.13;;;;;;;16.93;100.00;99920.00;5109771;28;20107;-61
2021/08/29 05:56:51;;;;;;;7.45;6.75;;;;;;;17.04;99.64;99917.69;5109986;28;20024;-61
2021/08/29 05:59:16;;;;;;;6.75;5.85;;;;;;;17.21;98.94;99918.31;5109983;28;20023;-62
2021/08/29 06:01:41;;;;;;;8.40;6.43;;;;;;;17.30;97.93;99906.38;5109235;28;20489;-61
2021/08/29 06:04:07;;;;;;;6.63;5.93;;;;;;;17.46;94.97;99901.63;5091191;28;20434;-62
2021/08/29 06:06:35;;;;;;;6.75;6.05;;;;;;;17.70;91.68;99895.88;5109881;28;20020;-62
2021/08/29 06:09:02;;;;;;;8.02;6.40;;;;;;;17.82;92.16;99901.63;5109143;28;20028;-62
2021/08/29 06:11:28;;;;;;;7.28;6.47;;;;;;;17.79;92.52;99883.88;5109728;28;20106;-62
2021/08/29 06:13:53;;;;;;;7.00;5.75;;;;;;;18.04;92.66;99911.50;5108971;28;20122;-62
2021/08/29 06:16:19;;;;;;;10.18;6.25;;;;;;;18.20;91.69;99916.69;5091700;28;20161;-62
2021/08/29 06:18:44;;;;;;;6.90;5.97;;;;;;;18.35;90.71;99903.06;5109854;28;20019;-63
2021/08/29 06:21:09;;;;;;;7.05;6.07;;;;;;;18.50;88.73;99912.00;5110144;28;20118;-62
2021/08/29 06:23:35;;;;;;;7.85;6.28;;;;;;;18.66;88.13;99914.44;5110151;28;20536;-62
2021/08/29 06:26:00;;;;;;;7.53;5.55;;;;;;;18.73;86.24;99901.75;5109592;28;20074;-62
2021/08/29 06:28:26;;;;;;;8.30;6.13;;;;;;;18.83;84.79;99904.97;5109281;28;20027;-62
2021/08/29 06:30:51;;;;;;;9.43;5.85;;;;;;;19.06;82.25;99903.66;5109794;28;20086;-62
2021/08/29 06:33:17;;;;;;;5.68;5.03;;;;;;;19.08;82.49;99901.59;5105056;28;20079;-62
2021/08/29 06:35:42;;;;;;;7.63;5.55;;;;;;;19.28;81.97;99908.03;5107177;28;20092;-62
2021/08/29 06:38:08;;;;;;;9.50;5.38;;;;;;;19.42;80.69;99906.22;5110122;28;20030;-62
2021/08/29 06:40:33;;;;;;;7.55;6.00;;;;;;;19.60;78.95;99904.63;5110065;28;20383;-62
2021/08/29 06:42:59;;;;;;;5.80;5.30;;;;;;;19.76;78.28;99901.56;5108983;28;20081;-62
2021/08/29 06:45:24;;;;;;;6.75;5.70;;;;;;;19.93;76.51;99904.78;5108799;28;20176;-63
2021/08/29 06:47:49;;;;;;;6.15;5.55;;;;;;;20.06;74.78;99888.47;5108026;28;20127;-63
2021/08/29 06:50:15;;;;;;;6.22;5.60;;;;;;;20.17;74.22;99890.63;5108606;28;20031;-63
2021/08/29 06:52:40;;;;;;;7.40;5.95;;;;;;;20.30;73.92;99895.25;5107836;28;20054;-62
2021/08/29 06:55:07;;;;;;;8.43;5.93;;;;;;;20.43;72.16;99903.44;5090537;28;20111;-62
2021/08/29 06:57:32;;;;;;;5.53;4.88;;;;;;;20.55;70.71;99897.19;5108688;28;20078;-63
2021/08/29 06:59:57;;;;;;;9.05;5.43;;;;;;;20.66;70.92;99899.25;5108032;28;20055;-62
2021/08/29 07:02:23;;;;;;;6.43;5.07;;;;;;;20.81;69.55;99896.31;5108599;28;20038;-63
2021/08/29 07:04:49;;;;;;;7.65;5.50;;;;;;;20.95;69.72;99887.97;5108358;28;20019;-63
2021/08/29 07:07:15;;;;;;;5.38;4.80;;;;;;;21.08;70.12;99882.47;5105986;28;20383;-63
2021/08/29 07:09:41;;;;;;;6.70;5.43;;;;;;;21.26;69.69;99890.00;5105618;28;20102;-63
2021/08/29 07:12:08;;;;;;;6.85;4.38;;;;;;;21.35;67.69;99888.72;5106238;28;20411;-63
2021/08/29 07:14:34;;;;;;;6.53;5.30;;;;;;;21.37;65.61;99883.88;5105215;28;20024;-63
2021/08/29 07:16:59;;;;;;;6.53;4.70;;;;;;;21.38;64.74;99888.31;5104781;28;20024;-63
2021/08/29 07:19:25;;;;;;;5.90;4.82;;;;;;;21.38;66.20;99888.31;5105753;28;20019;-63
2021/08/29 07:21:50;;;;;;;6.15;5.05;;;;;;;21.45;66.55;99889.97;5106540;28;20372;-63
2021/08/29 07:24:16;;;;;;;5.15;4.47;;;;;;;21.47;66.55;99874.19;5106448;28;20031;-63
2021/08/29 07:26:41;;;;;;;6.75;5.22;;;;;;;21.60;65.40;99885.06;5086825;28;20030;-63
2021/08/29 07:29:07;;;;;;;7.40;4.70;;;;;;;21.75;64.75;99884.81;5104106;28;20689;-62
2021/08/29 07:31:32;;;;;;;6.15;4.85;;;;;;;21.70;64.89;99870.97;5101565;28;20027;-64
2021/08/29 07:33:58;;;;;;;6.07;5.47;;;;;;;21.75;63.41;99885.66;5103229;27;20465;-64
2021/08/29 07:36:23;;;;;;;5.43;4.18;;;;;;;21.65;63.87;99888.00;5103500;27;20044;-64
2021/08/29 07:38:49;;;;;;;5.38;4.82;;;;;;;21.64;63.68;99882.75;5103594;28;20033;-64
2021/08/29 07:41:14;;;;;;;5.68;4.45;;;;;;;21.68;64.10;99883.97;5105384;28;20083;-64
2021/08/29 07:43:40;;;;;;;4.75;4.28;;;;;;;21.63;63.55;99860.06;5103717;28;20031;-64
2021/08/29 07:46:06;;;;;;;5.85;3.95;;;;;;;21.81;64.07;99881.22;5103990;28;20031;-64
2021/08/29 07:48:32;;;;;;;8.57;4.93;;;;;;;21.93;62.84;99882.22;5103529;28;20090;-64
2021/08/29 07:50:57;;;;;;;4.38;3.67;;;;;;;22.11;63.28;99880.44;5104437;28;20513;-64
2021/08/29 07:53:23;;;;;;;3.60;2.97;;;;;;;22.33;62.63;99878.19;5103404;28;20066;-65
2021/08/29 07:55:48;;;;;;;4.45;3.70;;;;;;;22.54;62.06;99869.66;5104865;28;20136;-64
2021/08/29 07:58:13;;;;;;;6.85;3.65;;;;;;;22.75;60.78;99868.41;5104369;28;20400;-64
2021/08/29 08:00:39;;;;;;;7.38;3.60;;;;;;;22.97;60.58;99872.41;5102848;28;20023;-64
2021/08/29 08:03:04;;;;;;;5.00;3.55;;;;;;;23.23;58.38;99875.78;5103666;28;20368;-64
2021/08/29 08:05:30;;;;;;;8.07;3.72;;;;;;;23.36;58.05;99863.81;5104358;28;20030;-65
2021/08/29 08:07:55;;;;;;;4.22;3.40;;;;;;;23.42;58.32;99851.97;5104383;28;20106;-65
2021/08/29 08:10:23;;;;;;;4.80;3.38;;;;;;;23.69;56.30;99870.59;5103215;28;20092;-64
2021/08/29 08:12:49;;;;;;;4.20;3.63;;;;;;;23.95;55.18;99862.06;5101964;28;20081;-64
2021/08/29 08:15:14;;;;;;;3.65;3.10;;;;;;;24.32;54.58;99857.31;5099466;28;20048;-64
2021/08/29 08:17:40;;;;;;;5.53;3.78;;;;;;;24.76;53.71;99845.81;5103088;28;20027;-64
2021/08/29 08:20:07;;;;;;;4.43;3.28;;;;;;;25.35;51.94;99850.25;5102931;28;20039;-65
2021/08/29 08:22:33;;;;;;;4.95;3.92;;;;;;;25.94;50.02;99856.19;5096887;28;20590;-64
2021/08/29 08:24:59;;;;;;;4.32;3.00;;;;;;;26.52;48.28;99842.16;5103327;28;20467;-65
2021/08/29 08:27:24;;;;;;;3.22;2.90;;;;;;;27.06;46.42;99844.16;5085278;28;20521;-64
2021/08/29 08:29:50;;;;;;;4.88;3.22;;;;;;;27.64;45.19;99833.44;5102248;28;20096;-63
2021/08/29 08:32:15;;;;;;;3.03;2.83;;;;;;;28.16;42.98;99829.09;5104159;28;20031;-63
2021/08/29 08:34:41;;;;;;;4.10;3.70;;;;;;;28.30;43.01;99830.31;5102242;28;20035;-62
2021/08/29 08:37:06;;;;;;;3.40;3.15;;;;;;;28.25;43.17;99834.97;5104152;28;20475;-63
2021/08/29 08:39:31;;;;;;;5.25;2.50;;;;;;;27.92;44.04;99833.22;5102721;28;20068;-62
2021/08/29 08:41:57;;;;;;;3.03;2.72;;;;;;;28.10;43.00;99826.53;5104030;28;20046;-63
2021/08/29 08:44:22;;;;;;;3.20;2.90;;;;;;;27.62;44.15;99824.56;5103192;28;20074;-63
2021/08/29 08:46:50;;;;;;;7.45;3.15;;;;;;;27.99;42.95;99822.81;5103916;28;20024;-64
2021/08/29 08:49:19;;;;;;;4.43;2.65;;;;;;;27.30;44.88;99822.75;5103645;28;20040;-64
2021/08/29 08:51:46;;;;;;;5.38;2.72;;;;;;;27.00;45.59;99828.66;5103608;28;20398;-64
2021/08/29 08:54:16;;;;;;;3.15;2.85;;;;;;;26.69;47.11;99823.75;5103687;28;20031;-62
2021/08/29 08:56:41;;;;;;;3.33;2.60;;;;;;;26.42;47.05;99814.47;5102234;28;20039;-62
2021/08/29 08:59:07;;;;;;;4.28;3.22;;;;;;;26.32;46.74;99817.06;5084928;28;20050;-62
2021/08/29 09:01:33;;;;;;;3.72;2.95;;;;;;;26.08;47.89;99832.84;5102543;28;20487;-62
2021/08/29 09:03:59;;;;;;;4.10;2.70;;;;;;;26.07;47.61;99827.59;5104091;28;20080;-62
2021/08/29 09:06:25;;;;;;;2.45;2.25;;;;;;;25.95;48.56;99830.34;5102982;28;20132;-63
2021/08/29 09:08:50;;;;;;;3.28;2.67;;;;;;;25.93;48.56;99827.00;5103855;28;20024;-63
2021/08/29 09:11:16;;;;;;;3.03;2.50;;;;;;;25.92;49.03;99830.03;5104010;28;20047;-62
2021/08/29 09:13:47;;;;;;;5.88;3.20;;;;;;;25.80;48.34;99835.53;5102332;28;20035;-63
2021/08/29 09:16:18;;;;;;;3.67;3.22;;;;;;;25.65;48.67;99835.25;5103048;28;20035;-63
2021/08/29 09:18:59;;;;;;;3.00;2.70;;;;;;;25.56;48.71;99822.97;5103224;28;20034;-63
2021/08/29 09:21:30;;;;;;;3.35;3.05;;;;;;;25.44;49.01;99819.41;5084252;28;20038;-64
2021/08/29 09:23:58;;;;;;;3.67;3.10;;;;;;;25.37;49.71;99820.66;5101123;28;20455;-64
2021/08/29 09:26:26;;;;;;;4.57;2.88;;;;;;;25.31;49.74;99819.69;5102075;28;20108;-64
2021/08/29 09:28:55;;;;;;;4.07;2.83;;;;;;;25.25;49.15;99817.91;5103045;28;20049;-64
2021/08/29 09:31:20;;;;;;;2.95;2.42;;;;;;;25.24;49.78;99816.22;5102996;28;20096;-64
2021/08/29 09:34:00;;;;;;;4.72;3.00;;;;;;;25.10;49.48;99805.72;5084618;28;20027;-65
2021/08/29 09:36:30;;;;;;;3.13;2.45;;;;;;;25.10;49.76;99809.31;5083893;28;20606;-65
2021/08/29 09:39:12;;;;;;;3.17;2.45;;;;;;;25.06;50.14;99810.03;5103604;28;20027;-65
2021/08/29 09:41:38;;;;;;;3.90;2.78;;;;;;;25.04;50.70;99804.78;5104194;28;20063;-64
2021/08/29 09:44:17;;;;;;;3.92;2.22;;;;;;;25.14;50.39;99804.16;5106743;28;20087;-65
2021/08/29 09:46:49;;;;;;;3.53;2.40;;;;;;;25.19;49.01;99804.28;5105809;28;20036;-64
2021/08/29 09:49:25;;;;;;;2.25;1.98;;;;;;;25.09;47.91;99806.81;5107373;28;20680;-64
2021/08/29 09:51:51;;;;;;;2.80;1.98;;;;;;;25.02;47.74;99812.41;5106720;28;20032;-65
2021/08/29 09:54:34;;;;;;;2.25;1.83;;;;;;;24.96;47.02;99793.34;5107042;28;20032;-65
2021/08/29 09:57:01;;;;;;;1.58;1.48;;;;;;;24.97;47.34;99798.59;5106547;28;20125;-65
2021/08/29 09:59:36;;;;;;;1.60;1.50;;;;;;;25.01;47.93;99790.69;5105089;28;20034;-64
2021/08/29 10:02:02;;;;;;;4.93;4.32;;;;;;;25.05;48.42;99803.69;5106005;28;20046;-65
2021/08/29 10:04:28;;;;;;;3.85;3.10;;;;;;;25.00;47.54;99797.28;5106637;28;20386;-65
2021/08/29 10:06:53;;;;;;;3.85;1.90;;;;;;;24.96;47.25;99804.31;5105477;28;20036;-65
2021/08/29 10:09:26;;;;;;;3.20;2.15;;;;;;;24.86;47.01;99802.16;5106445;28;20023;-65
2021/08/29 10:11:52;;;;;;;3.63;1.90;;;;;;;24.75;47.07;99803.00;5088502;28;20036;-65
2021/08/29 10:14:19;;;;;;;4.05;2.22;;;;;;;24.68;47.29;99802.31;5087068;28;20050;-64
2021/08/29 10:16:46;;;;;;;2.30;1.58;;;;;;;24.60;48.08;99791.63;5105705;28;20051;-65
2021/08/29 10:19:15;;;;;;;1.70;1.60;;;;;;;24.56;48.66;99778.66;5088124;28;20479;-66
2021/08/29 10:21:41;;;;;;;2.33;1.75;;;;;;;24.67;49.05;99786.09;5105263;28;20106;-64
2021/08/29 10:24:07;;;;;;;2.22;1.45;;;;;;;24.78;46.43;99788.81;5105937;28;20031;-64
2021/08/29 10:26:33;;;;;;;4.00;1.50;;;;;;;24.79;46.40;99785.00;5086743;28;20107;-64
2021/08/29 10:29:07;;;;;;;4.65;4.18;;;;;;;24.86;45.00;99785.69;5105143;28;20047;-65
2021/08/29 10:31:45;;;;;;;3.53;2.33;;;;;;;24.83;45.43;99785.38;5104065;28;20044;-64
2021/08/29 10:34:12;;;;;;;2.17;1.98;;;;;;;24.88;45.10;99775.34;5105683;28;20480;-64
2021/08/29 10:36:38;;;;;;;2.83;1.83;;;;;;;24.85;45.90;99764.03;5106351;28;20026;-64
2021/08/29 10:39:03;;;;;;;2.17;1.60;;;;;;;24.97;46.17;99773.91;5106293;28;20666;-65
2021/08/29 10:41:30;;;;;;;2.05;1.80;;;;;;;25.00;46.33;99778.91;5106302;28;20063;-64
2021/08/29 10:43:56;;;;;;;2.42;1.90;;;;;;;24.98;46.77;99772.00;5106299;28;20042;-64
2021/08/29 10:46:22;;;;;;;2.13;1.77;;;;;;;24.86;47.35;99747.28;5106921;28;20032;-65
2021/08/29 10:48:52;;;;;;;3.35;1.30;;;;;;;24.91;47.88;99761.13;5105469;28;20507;-65
2021/08/29 10:51:23;;;;;;;1.60;1.50;;;;;;;24.84;48.18;99760.44;5096608;28;20118;-65
2021/08/29 10:53:54;;;;;;;2.33;1.77;;;;;;;24.75;48.17;99758.28;5105574;28;20580;-65
2021/08/29 10:56:19;;;;;;;1.70;1.50;;;;;;;24.67;47.54;99754.00;5105657;28;20429;-65
2021/08/29 10:58:47;;;;;;;3.28;1.48;;;;;;;24.56;46.90;99746.56;5085766;28;20032;-65
2021/08/29 11:01:35;;;;;;;1.60;1.50;;;;;;;24.53;47.02;99755.28;5105864;28;20067;-63
2021/08/29 11:04:19;;;;;;;2.65;1.33;;;;;;;24.51;46.86;99749.22;5086112;28;20047;-65
2021/08/29 11:06:58;;;;;;;1.65;1.52;;;;;;;24.55;46.81;99741.31;5104630;28;20050;-64
2021/08/29 11:09:36;;;;;;;3.53;1.40;;;;;;;24.56;46.97;99743.81;5104853;28;20513;-64
2021/08/29 11:12:03;;;;;;;1.75;1.40;;;;;;;24.53;46.21;99736.06;5105227;28;20024;-64
2021/08/29 11:14:38;;;;;;;2.40;1.30;;;;;;;24.64;45.18;99739.94;5102969;28;20096;-64
2021/08/29 11:17:12;;;;;;;1.20;1.10;;;;;;;24.63;45.94;99739.06;5105252;28;20036;-64
2021/08/29 11:19:42;;;;;;;1.40;1.23;;;;;;;24.52;45.95;99728.09;5104301;28;20043;-64
2021/08/29 11:22:07;;;;;;;2.30;1.35;;;;;;;24.45;45.14;99731.78;5104781;28;20052;-64
2021/08/29 11:24:55;;;;;;;1.33;1.23;;;;;;;24.38;44.99;99736.56;5102554;28;20437;-64